sensor_id;sensor_type;location;lat;lon;timestamp;P1;durP1;ratioP1;P2;durP2;ratioP2
46757;SDS011;32509;47.750;-3.396;2024-02-26T00:02:19;21.92;;;20.35;;
46757;SDS011;32509;47.750;-3.396;2024-02-26T00:04:45;23.05;;;21.05;;
46757;SDS011;32509;47.750;-3.396;2024-02-26T00:07:10;22.92;;;21.02;;
46757;SDS011;32509;47.750;-3.396;2024-02-26T00:09:36;24.45;;;22.48;;
46757;SDS011;32509;47.750;-3.396;2024-02-26T00:12:02;23.33;;;21.38;;
46757;SDS011;32509;47.750;-3.396;2024-02-26T00:14:29;21.85;;;20.15;;
46757;SDS011;32509;47.750;-3.396;2024-02-26T00:16:55;22.30;;;20.45;;
46757;SDS011;32509;47.750;-3.396;2024-02-26T00:19:21;23.10;;;20.77;;
46757;SDS011;32509;47.750;-3.396;2024-02-26T00:21:47;21.77;;;20.38;;
46757;SDS011;32509;47.750;-3.396;2024-02-26T00:24:13;21.90;;;20.55;;
46757;SDS011;32509;47.750;-3.396;2024-02-26T00:26:39;21.10;;;19.85;;
46757;SDS011;32509;47.750;-3.396;2024-02-26T00:29:04;20.42;;;19.13;;
46757;SDS011;32509;47.750;-3.396;2024-02-26T00:31:30;22.30;;;20.60;;
46757;SDS011;32509;47.750;-3.396;2024-02-26T00:33:56;22.35;;;21.00;;
46757;SDS011;32509;47.750;-3.396;2024-02-26T00:36:22;22.45;;;20.90;;
46757;SDS011;32509;47.750;-3.396;2024-02-26T00:38:47;21.33;;;20.00;;
46757;SDS011;32509;47.750;-3.396;2024-02-26T00:41:19;22.55;;;20.75;;
46757;SDS011;32509;47.750;-3.396;2024-02-26T00:43:45;23.00;;;21.52;;
46757;SDS011;32509;47.750;-3.396;2024-02-26T00:46:12;20.85;;;19.60;;
46757;SDS011;32509;47.750;-3.396;2024-02-26T00:48:37;21.15;;;19.60;;
46757;SDS011;32509;47.750;-3.396;2024-02-26T00:51:03;21.38;;;19.98;;
46757;SDS011;32509;47.750;-3.396;2024-02-26T00:53:30;21.52;;;20.10;;
46757;SDS011;32509;47.750;-3.396;2024-02-26T00:55:56;21.92;;;20.20;;
46757;SDS011;32509;47.750;-3.396;2024-02-26T00:58:24;21.85;;;20.45;;
46757;SDS011;32509;47.750;-3.396;2024-02-26T01:00:50;21.10;;;19.67;;
46757;SDS011;32509;47.750;-3.396;2024-02-26T01:03:17;22.13;;;20.50;;
46757;SDS011;32509;47.750;-3.396;2024-02-26T01:05:42;22.10;;;20.58;;
46757;SDS011;32509;47.750;-3.396;2024-02-26T01:08:08;20.90;;;19.50;;
46757;SDS011;32509;47.750;-3.396;2024-02-26T01:10:34;19.88;;;18.65;;
46757;SDS011;32509;47.750;-3.396;2024-02-26T01:13:00;21.45;;;19.95;;
46757;SDS011;32509;47.750;-3.396;2024-02-26T01:15:26;20.50;;;19.20;;
46757;SDS011;32509;47.750;-3.396;2024-02-26T01:17:52;21.80;;;20.00;;
46757;SDS011;32509;47.750;-3.396;2024-02-26T01:20:18;21.13;;;19.70;;
46757;SDS011;32509;47.750;-3.396;2024-02-26T01:22:44;21.42;;;19.90;;
46757;SDS011;32509;47.750;-3.396;2024-02-26T01:25:10;21.40;;;20.02;;
46757;SDS011;32509;47.750;-3.396;2024-02-26T01:27:37;20.85;;;19.27;;
46757;SDS011;32509;47.750;-3.396;2024-02-26T01:30:06;20.98;;;19.77;;
46757;SDS011;32509;47.750;-3.396;2024-02-26T01:32:32;20.65;;;19.45;;
46757;SDS011;32509;47.750;-3.396;2024-02-26T01:34:58;21.00;;;19.65;;
46757;SDS011;32509;47.750;-3.396;2024-02-26T01:37:24;20.75;;;19.55;;
46757;SDS011;32509;47.750;-3.396;2024-02-26T01:39:50;22.02;;;20.52;;
46757;SDS011;32509;47.750;-3.396;2024-02-26T01:42:16;21.73;;;20.08;;
46757;SDS011;32509;47.750;-3.396;2024-02-26T01:44:42;21.05;;;19.85;;
46757;SDS011;32509;47.750;-3.396;2024-02-26T01:47:07;21.48;;;20.25;;
46757;SDS011;32509;47.750;-3.396;2024-02-26T01:49:36;21.67;;;20.40;;
46757;SDS011;32509;47.750;-3.396;2024-02-26T01:52:03;22.30;;;20.90;;
46757;SDS011;32509;47.750;-3.396;2024-02-26T01:54:29;22.00;;;20.52;;
46757;SDS011;32509;47.750;-3.396;2024-02-26T01:56:56;21.17;;;19.65;;
46757;SDS011;32509;47.750;-3.396;2024-02-26T01:59:22;21.48;;;20.10;;
46757;SDS011;32509;47.750;-3.396;2024-02-26T02:01:50;22.17;;;20.45;;
46757;SDS011;32509;47.750;-3.396;2024-02-26T02:04:20;22.73;;;21.05;;
46757;SDS011;32509;47.750;-3.396;2024-02-26T02:06:48;21.80;;;20.45;;
46757;SDS011;32509;47.750;-3.396;2024-02-26T02:09:14;21.58;;;20.27;;
46757;SDS011;32509;47.750;-3.396;2024-02-26T02:11:40;22.88;;;21.45;;
46757;SDS011;32509;47.750;-3.396;2024-02-26T02:14:06;21.92;;;20.45;;
46757;SDS011;32509;47.750;-3.396;2024-02-26T02:16:32;21.52;;;20.23;;
46757;SDS011;32509;47.750;-3.396;2024-02-26T02:18:59;22.65;;;21.25;;
46757;SDS011;32509;47.750;-3.396;2024-02-26T02:21:24;21.10;;;19.60;;
46757;SDS011;32509;47.750;-3.396;2024-02-26T02:23:50;22.23;;;20.67;;
46757;SDS011;32509;47.750;-3.396;2024-02-26T02:26:16;22.80;;;21.25;;
46757;SDS011;32509;47.750;-3.396;2024-02-26T02:28:43;22.38;;;20.80;;
46757;SDS011;32509;47.750;-3.396;2024-02-26T02:31:11;22.08;;;20.42;;
46757;SDS011;32509;47.750;-3.396;2024-02-26T02:33:37;22.00;;;20.60;;
46757;SDS011;32509;47.750;-3.396;2024-02-26T02:36:03;23.02;;;21.27;;
46757;SDS011;32509;47.750;-3.396;2024-02-26T02:38:29;21.77;;;20.08;;
46757;SDS011;32509;47.750;-3.396;2024-02-26T02:40:56;21.92;;;20.38;;
46757;SDS011;32509;47.750;-3.396;2024-02-26T02:43:22;21.55;;;19.83;;
46757;SDS011;32509;47.750;-3.396;2024-02-26T02:45:48;22.85;;;21.25;;
46757;SDS011;32509;47.750;-3.396;2024-02-26T02:48:14;23.40;;;21.00;;
46757;SDS011;32509;47.750;-3.396;2024-02-26T02:50:39;21.67;;;20.15;;
46757;SDS011;32509;47.750;-3.396;2024-02-26T02:53:05;22.48;;;20.73;;
46757;SDS011;32509;47.750;-3.396;2024-02-26T02:55:31;21.98;;;20.30;;
46757;SDS011;32509;47.750;-3.396;2024-02-26T02:57:56;21.70;;;20.15;;
46757;SDS011;32509;47.750;-3.396;2024-02-26T03:00:22;23.63;;;21.48;;
46757;SDS011;32509;47.750;-3.396;2024-02-26T03:02:48;22.02;;;20.50;;
46757;SDS011;32509;47.750;-3.396;2024-02-26T03:05:14;24.17;;;21.88;;
46757;SDS011;32509;47.750;-3.396;2024-02-26T03:07:40;21.48;;;20.13;;
46757;SDS011;32509;47.750;-3.396;2024-02-26T03:10:06;22.98;;;21.27;;
46757;SDS011;32509;47.750;-3.396;2024-02-26T03:12:33;22.05;;;20.48;;
46757;SDS011;32509;47.750;-3.396;2024-02-26T03:14:59;21.77;;;20.27;;
46757;SDS011;32509;47.750;-3.396;2024-02-26T03:17:28;21.08;;;19.80;;
46757;SDS011;32509;47.750;-3.396;2024-02-26T03:19:54;21.25;;;19.90;;
46757;SDS011;32509;47.750;-3.396;2024-02-26T03:22:20;21.27;;;19.83;;
46757;SDS011;32509;47.750;-3.396;2024-02-26T03:24:47;21.48;;;20.17;;
46757;SDS011;32509;47.750;-3.396;2024-02-26T03:27:13;20.70;;;19.33;;
46757;SDS011;32509;47.750;-3.396;2024-02-26T03:29:39;21.10;;;19.77;;
46757;SDS011;32509;47.750;-3.396;2024-02-26T03:32:05;22.33;;;20.88;;
46757;SDS011;32509;47.750;-3.396;2024-02-26T03:34:31;21.02;;;19.73;;
46757;SDS011;32509;47.750;-3.396;2024-02-26T03:36:59;21.33;;;20.02;;
46757;SDS011;32509;47.750;-3.396;2024-02-26T03:39:25;21.05;;;19.95;;
46757;SDS011;32509;47.750;-3.396;2024-02-26T03:41:51;21.55;;;20.42;;
46757;SDS011;32509;47.750;-3.396;2024-02-26T03:44:17;21.50;;;20.40;;
46757;SDS011;32509;47.750;-3.396;2024-02-26T03:46:43;22.10;;;20.80;;
46757;SDS011;32509;47.750;-3.396;2024-02-26T03:49:09;23.65;;;22.38;;
46757;SDS011;32509;47.750;-3.396;2024-02-26T03:51:35;22.83;;;21.30;;
46757;SDS011;32509;47.750;-3.396;2024-02-26T03:54:01;21.63;;;20.30;;
46757;SDS011;32509;47.750;-3.396;2024-02-26T03:56:27;22.00;;;20.90;;
46757;SDS011;32509;47.750;-3.396;2024-02-26T03:58:53;25.67;;;24.17;;
46757;SDS011;32509;47.750;-3.396;2024-02-26T04:01:19;25.17;;;23.88;;
46757;SDS011;32509;47.750;-3.396;2024-02-26T04:03:44;24.52;;;23.13;;
46757;SDS011;32509;47.750;-3.396;2024-02-26T04:06:10;26.77;;;25.27;;
46757;SDS011;32509;47.750;-3.396;2024-02-26T04:08:39;27.77;;;26.00;;
46757;SDS011;32509;47.750;-3.396;2024-02-26T04:11:05;28.52;;;26.75;;
46757;SDS011;32509;47.750;-3.396;2024-02-26T04:13:35;28.67;;;26.75;;
46757;SDS011;32509;47.750;-3.396;2024-02-26T04:16:03;29.10;;;26.83;;
46757;SDS011;32509;47.750;-3.396;2024-02-26T04:18:30;29.45;;;27.60;;
46757;SDS011;32509;47.750;-3.396;2024-02-26T04:20:56;27.02;;;25.15;;
46757;SDS011;32509;47.750;-3.396;2024-02-26T04:23:23;26.83;;;25.13;;
46757;SDS011;32509;47.750;-3.396;2024-02-26T04:25:49;28.30;;;26.48;;
46757;SDS011;32509;47.750;-3.396;2024-02-26T04:28:14;27.23;;;25.27;;
46757;SDS011;32509;47.750;-3.396;2024-02-26T04:30:40;30.83;;;28.92;;
46757;SDS011;32509;47.750;-3.396;2024-02-26T04:33:06;28.27;;;26.52;;
46757;SDS011;32509;47.750;-3.396;2024-02-26T04:35:32;30.05;;;28.13;;
46757;SDS011;32509;47.750;-3.396;2024-02-26T04:38:00;26.55;;;24.85;;
46757;SDS011;32509;47.750;-3.396;2024-02-26T04:40:26;28.70;;;26.80;;
46757;SDS011;32509;47.750;-3.396;2024-02-26T04:42:51;29.45;;;27.42;;
46757;SDS011;32509;47.750;-3.396;2024-02-26T04:45:17;29.15;;;27.35;;
46757;SDS011;32509;47.750;-3.396;2024-02-26T04:47:43;29.85;;;28.05;;
46757;SDS011;32509;47.750;-3.396;2024-02-26T04:50:09;34.33;;;31.85;;
46757;SDS011;32509;47.750;-3.396;2024-02-26T04:52:34;33.95;;;31.85;;
46757;SDS011;32509;47.750;-3.396;2024-02-26T04:55:01;35.08;;;32.85;;
46757;SDS011;32509;47.750;-3.396;2024-02-26T04:57:27;33.88;;;31.65;;
46757;SDS011;32509;47.750;-3.396;2024-02-26T04:59:53;32.63;;;30.67;;
46757;SDS011;32509;47.750;-3.396;2024-02-26T05:02:19;38.17;;;35.70;;
46757;SDS011;32509;47.750;-3.396;2024-02-26T05:04:45;37.25;;;34.60;;
46757;SDS011;32509;47.750;-3.396;2024-02-26T05:07:10;37.85;;;35.25;;
46757;SDS011;32509;47.750;-3.396;2024-02-26T05:09:37;33.25;;;31.05;;
46757;SDS011;32509;47.750;-3.396;2024-02-26T05:12:03;33.83;;;31.65;;
46757;SDS011;32509;47.750;-3.396;2024-02-26T05:14:30;31.35;;;29.45;;
46757;SDS011;32509;47.750;-3.396;2024-02-26T05:16:56;30.42;;;28.63;;
46757;SDS011;32509;47.750;-3.396;2024-02-26T05:19:22;35.58;;;33.45;;
46757;SDS011;32509;47.750;-3.396;2024-02-26T05:21:47;31.48;;;29.50;;
46757;SDS011;32509;47.750;-3.396;2024-02-26T05:24:15;33.40;;;31.42;;
46757;SDS011;32509;47.750;-3.396;2024-02-26T05:26:42;33.25;;;31.20;;
46757;SDS011;32509;47.750;-3.396;2024-02-26T05:29:08;38.55;;;36.05;;
46757;SDS011;32509;47.750;-3.396;2024-02-26T05:31:34;32.63;;;30.73;;
46757;SDS011;32509;47.750;-3.396;2024-02-26T05:34:00;35.10;;;32.92;;
46757;SDS011;32509;47.750;-3.396;2024-02-26T05:36:26;36.75;;;34.60;;
46757;SDS011;32509;47.750;-3.396;2024-02-26T05:38:53;34.92;;;32.45;;
46757;SDS011;32509;47.750;-3.396;2024-02-26T05:41:20;38.78;;;36.58;;
46757;SDS011;32509;47.750;-3.396;2024-02-26T05:43:51;42.00;;;39.60;;
46757;SDS011;32509;47.750;-3.396;2024-02-26T05:46:17;36.10;;;34.03;;
46757;SDS011;32509;47.750;-3.396;2024-02-26T05:48:44;36.17;;;34.08;;
46757;SDS011;32509;47.750;-3.396;2024-02-26T05:51:12;35.45;;;33.15;;
46757;SDS011;32509;47.750;-3.396;2024-02-26T05:53:37;35.28;;;33.17;;
46757;SDS011;32509;47.750;-3.396;2024-02-26T05:56:03;31.55;;;29.75;;
46757;SDS011;32509;47.750;-3.396;2024-02-26T05:58:29;30.50;;;28.65;;
46757;SDS011;32509;47.750;-3.396;2024-02-26T06:00:55;37.47;;;35.28;;
46757;SDS011;32509;47.750;-3.396;2024-02-26T06:03:20;37.30;;;34.65;;
46757;SDS011;32509;47.750;-3.396;2024-02-26T06:05:46;36.40;;;34.25;;
46757;SDS011;32509;47.750;-3.396;2024-02-26T06:08:12;32.65;;;30.67;;
46757;SDS011;32509;47.750;-3.396;2024-02-26T06:10:39;31.70;;;29.73;;
46757;SDS011;32509;47.750;-3.396;2024-02-26T06:13:04;36.13;;;34.05;;
46757;SDS011;32509;47.750;-3.396;2024-02-26T06:15:30;35.30;;;33.35;;
46757;SDS011;32509;47.750;-3.396;2024-02-26T06:17:56;32.70;;;30.70;;
46757;SDS011;32509;47.750;-3.396;2024-02-26T06:20:22;33.25;;;31.45;;
46757;SDS011;32509;47.750;-3.396;2024-02-26T06:22:47;34.00;;;31.90;;
46757;SDS011;32509;47.750;-3.396;2024-02-26T06:25:13;31.85;;;30.08;;
46757;SDS011;32509;47.750;-3.396;2024-02-26T06:27:39;33.40;;;31.50;;
46757;SDS011;32509;47.750;-3.396;2024-02-26T06:30:05;33.28;;;31.33;;
46757;SDS011;32509;47.750;-3.396;2024-02-26T06:32:33;33.55;;;31.60;;
46757;SDS011;32509;47.750;-3.396;2024-02-26T06:34:59;32.30;;;30.52;;
46757;SDS011;32509;47.750;-3.396;2024-02-26T06:37:25;33.38;;;31.48;;
46757;SDS011;32509;47.750;-3.396;2024-02-26T06:39:50;32.85;;;31.05;;
46757;SDS011;32509;47.750;-3.396;2024-02-26T06:42:17;36.00;;;33.90;;
46757;SDS011;32509;47.750;-3.396;2024-02-26T06:44:43;33.10;;;31.10;;
46757;SDS011;32509;47.750;-3.396;2024-02-26T06:47:08;34.28;;;32.08;;
46757;SDS011;32509;47.750;-3.396;2024-02-26T06:49:34;35.33;;;33.20;;
46757;SDS011;32509;47.750;-3.396;2024-02-26T06:52:00;32.67;;;30.70;;
46757;SDS011;32509;47.750;-3.396;2024-02-26T06:54:26;34.03;;;32.10;;
46757;SDS011;32509;47.750;-3.396;2024-02-26T07:12:20;42.78;;;40.10;;
46757;SDS011;32509;47.750;-3.396;2024-02-26T07:14:47;43.90;;;41.20;;
46757;SDS011;32509;47.750;-3.396;2024-02-26T07:17:13;41.17;;;38.47;;
46757;SDS011;32509;47.750;-3.396;2024-02-26T07:19:41;38.70;;;36.47;;
46757;SDS011;32509;47.750;-3.396;2024-02-26T07:22:07;40.40;;;37.65;;
46757;SDS011;32509;47.750;-3.396;2024-02-26T07:24:33;36.72;;;34.25;;
46757;SDS011;32509;47.750;-3.396;2024-02-26T07:26:58;35.05;;;32.83;;
46757;SDS011;32509;47.750;-3.396;2024-02-26T07:29:24;34.38;;;32.35;;
46757;SDS011;32509;47.750;-3.396;2024-02-26T07:31:50;38.05;;;35.83;;
46757;SDS011;32509;47.750;-3.396;2024-02-26T07:34:16;35.95;;;33.65;;
46757;SDS011;32509;47.750;-3.396;2024-02-26T07:36:42;40.22;;;37.70;;
46757;SDS011;32509;47.750;-3.396;2024-02-26T07:39:07;37.70;;;35.38;;
46757;SDS011;32509;47.750;-3.396;2024-02-26T07:41:33;44.20;;;40.67;;
46757;SDS011;32509;47.750;-3.396;2024-02-26T07:43:59;35.13;;;32.88;;
46757;SDS011;32509;47.750;-3.396;2024-02-26T07:46:25;39.70;;;37.40;;
46757;SDS011;32509;47.750;-3.396;2024-02-26T07:48:50;39.33;;;36.58;;
46757;SDS011;32509;47.750;-3.396;2024-02-26T07:51:16;39.45;;;36.78;;
46757;SDS011;32509;47.750;-3.396;2024-02-26T07:53:42;42.28;;;39.38;;
46757;SDS011;32509;47.750;-3.396;2024-02-26T07:56:08;42.30;;;39.67;;
46757;SDS011;32509;47.750;-3.396;2024-02-26T07:58:34;40.78;;;37.85;;
46757;SDS011;32509;47.750;-3.396;2024-02-26T08:01:00;40.97;;;38.10;;
46757;SDS011;32509;47.750;-3.396;2024-02-26T08:03:26;39.67;;;36.85;;
46757;SDS011;32509;47.750;-3.396;2024-02-26T08:05:52;37.92;;;35.45;;
46757;SDS011;32509;47.750;-3.396;2024-02-26T08:08:18;39.33;;;36.78;;
46757;SDS011;32509;47.750;-3.396;2024-02-26T08:10:43;38.25;;;35.85;;
46757;SDS011;32509;47.750;-3.396;2024-02-26T08:13:09;37.25;;;34.90;;
46757;SDS011;32509;47.750;-3.396;2024-02-26T08:15:35;37.83;;;35.22;;
46757;SDS011;32509;47.750;-3.396;2024-02-26T08:18:02;39.70;;;37.05;;
46757;SDS011;32509;47.750;-3.396;2024-02-26T08:20:29;39.10;;;36.53;;
46757;SDS011;32509;47.750;-3.396;2024-02-26T08:22:55;40.85;;;38.08;;
46757;SDS011;32509;47.750;-3.396;2024-02-26T08:25:21;38.47;;;35.97;;
46757;SDS011;32509;47.750;-3.396;2024-02-26T08:27:47;38.33;;;35.72;;
46757;SDS011;32509;47.750;-3.396;2024-02-26T08:30:14;37.53;;;34.58;;
46757;SDS011;32509;47.750;-3.396;2024-02-26T08:32:42;44.17;;;40.90;;
46757;SDS011;32509;47.750;-3.396;2024-02-26T08:35:09;42.13;;;39.05;;
46757;SDS011;32509;47.750;-3.396;2024-02-26T08:37:35;42.72;;;40.13;;
46757;SDS011;32509;47.750;-3.396;2024-02-26T08:40:00;42.25;;;39.25;;
46757;SDS011;32509;47.750;-3.396;2024-02-26T08:42:27;41.80;;;38.85;;
46757;SDS011;32509;47.750;-3.396;2024-02-26T08:44:52;40.17;;;37.05;;
46757;SDS011;32509;47.750;-3.396;2024-02-26T08:47:19;45.30;;;41.75;;
46757;SDS011;32509;47.750;-3.396;2024-02-26T08:49:45;44.88;;;41.35;;
46757;SDS011;32509;47.750;-3.396;2024-02-26T08:52:11;38.92;;;35.78;;
46757;SDS011;32509;47.750;-3.396;2024-02-26T08:54:37;44.20;;;41.08;;
46757;SDS011;32509;47.750;-3.396;2024-02-26T08:57:03;46.35;;;43.13;;
46757;SDS011;32509;47.750;-3.396;2024-02-26T08:59:29;43.78;;;40.63;;
46757;SDS011;32509;47.750;-3.396;2024-02-26T09:01:54;44.38;;;41.45;;
46757;SDS011;32509;47.750;-3.396;2024-02-26T09:04:20;44.42;;;40.47;;
46757;SDS011;32509;47.750;-3.396;2024-02-26T09:06:46;43.90;;;40.90;;
46757;SDS011;32509;47.750;-3.396;2024-02-26T09:09:12;41.65;;;38.88;;
46757;SDS011;32509;47.750;-3.396;2024-02-26T09:11:38;40.67;;;37.38;;
46757;SDS011;32509;47.750;-3.396;2024-02-26T09:14:04;40.10;;;37.08;;
46757;SDS011;32509;47.750;-3.396;2024-02-26T09:16:30;46.15;;;42.72;;
46757;SDS011;32509;47.750;-3.396;2024-02-26T09:18:56;43.65;;;40.42;;
46757;SDS011;32509;47.750;-3.396;2024-02-26T09:21:22;45.25;;;41.90;;
46757;SDS011;32509;47.750;-3.396;2024-02-26T09:23:50;47.72;;;44.10;;
46757;SDS011;32509;47.750;-3.396;2024-02-26T09:26:16;46.25;;;42.38;;
46757;SDS011;32509;47.750;-3.396;2024-02-26T09:28:42;42.08;;;38.78;;
46757;SDS011;32509;47.750;-3.396;2024-02-26T09:31:08;44.05;;;41.03;;
46757;SDS011;32509;47.750;-3.396;2024-02-26T09:33:34;49.05;;;45.70;;
46757;SDS011;32509;47.750;-3.396;2024-02-26T09:36:00;47.42;;;43.47;;
46757;SDS011;32509;47.750;-3.396;2024-02-26T09:38:26;43.35;;;40.17;;
46757;SDS011;32509;47.750;-3.396;2024-02-26T09:40:52;41.17;;;38.28;;
46757;SDS011;32509;47.750;-3.396;2024-02-26T09:43:21;50.45;;;46.70;;
46757;SDS011;32509;47.750;-3.396;2024-02-26T09:45:52;44.22;;;41.25;;
46757;SDS011;32509;47.750;-3.396;2024-02-26T09:48:19;43.20;;;40.05;;
46757;SDS011;32509;47.750;-3.396;2024-02-26T09:50:47;45.80;;;42.60;;
46757;SDS011;32509;47.750;-3.396;2024-02-26T09:53:13;43.85;;;40.47;;
46757;SDS011;32509;47.750;-3.396;2024-02-26T09:55:40;44.10;;;41.03;;
46757;SDS011;32509;47.750;-3.396;2024-02-26T09:58:06;43.53;;;40.25;;
46757;SDS011;32509;47.750;-3.396;2024-02-26T10:00:32;44.67;;;41.38;;
46757;SDS011;32509;47.750;-3.396;2024-02-26T10:03:03;43.40;;;40.17;;
46757;SDS011;32509;47.750;-3.396;2024-02-26T10:05:31;45.25;;;41.70;;
46757;SDS011;32509;47.750;-3.396;2024-02-26T10:07:59;49.00;;;45.15;;
46757;SDS011;32509;47.750;-3.396;2024-02-26T10:10:27;45.60;;;41.95;;
46757;SDS011;32509;47.750;-3.396;2024-02-26T10:12:54;46.95;;;43.17;;
46757;SDS011;32509;47.750;-3.396;2024-02-26T10:15:20;47.40;;;43.97;;
46757;SDS011;32509;47.750;-3.396;2024-02-26T10:17:46;50.30;;;46.50;;
46757;SDS011;32509;47.750;-3.396;2024-02-26T10:20:18;48.53;;;44.53;;
46757;SDS011;32509;47.750;-3.396;2024-02-26T10:22:46;45.85;;;42.85;;
46757;SDS011;32509;47.750;-3.396;2024-02-26T10:25:12;50.83;;;46.60;;
46757;SDS011;32509;47.750;-3.396;2024-02-26T10:27:40;47.83;;;43.90;;
46757;SDS011;32509;47.750;-3.396;2024-02-26T10:30:19;44.22;;;40.72;;
46757;SDS011;32509;47.750;-3.396;2024-02-26T10:32:46;52.38;;;47.75;;
46757;SDS011;32509;47.750;-3.396;2024-02-26T10:35:14;52.08;;;48.38;;
46757;SDS011;32509;47.750;-3.396;2024-02-26T10:37:40;51.63;;;48.03;;
46757;SDS011;32509;47.750;-3.396;2024-02-26T10:40:10;48.55;;;44.20;;
46757;SDS011;32509;47.750;-3.396;2024-02-26T10:42:37;51.53;;;47.60;;
46757;SDS011;32509;47.750;-3.396;2024-02-26T10:45:04;47.20;;;43.47;;
46757;SDS011;32509;47.750;-3.396;2024-02-26T10:47:37;49.97;;;46.30;;
46757;SDS011;32509;47.750;-3.396;2024-02-26T10:50:03;51.45;;;47.47;;
46757;SDS011;32509;47.750;-3.396;2024-02-26T10:52:35;57.35;;;53.55;;
46757;SDS011;32509;47.750;-3.396;2024-02-26T10:55:02;56.13;;;52.13;;
46757;SDS011;32509;47.750;-3.396;2024-02-26T10:57:39;48.92;;;44.95;;
46757;SDS011;32509;47.750;-3.396;2024-02-26T11:00:06;50.80;;;47.10;;
46757;SDS011;32509;47.750;-3.396;2024-02-26T11:02:35;51.33;;;47.92;;
46757;SDS011;32509;47.750;-3.396;2024-02-26T11:05:04;51.22;;;47.30;;
46757;SDS011;32509;47.750;-3.396;2024-02-26T11:07:31;54.40;;;50.40;;
46757;SDS011;32509;47.750;-3.396;2024-02-26T11:09:59;54.58;;;50.80;;
46757;SDS011;32509;47.750;-3.396;2024-02-26T11:12:27;48.65;;;44.83;;
46757;SDS011;32509;47.750;-3.396;2024-02-26T11:14:54;53.92;;;50.30;;
46757;SDS011;32509;47.750;-3.396;2024-02-26T12:52:13;53.03;;;49.33;;
46757;SDS011;32509;47.750;-3.396;2024-02-26T12:54:39;54.38;;;50.35;;
46757;SDS011;32509;47.750;-3.396;2024-02-26T12:57:06;50.30;;;46.90;;
46757;SDS011;32509;47.750;-3.396;2024-02-26T12:59:34;54.28;;;50.35;;
46757;SDS011;32509;47.750;-3.396;2024-02-26T13:02:00;54.42;;;50.53;;
46757;SDS011;32509;47.750;-3.396;2024-02-26T13:04:28;54.17;;;50.30;;
46757;SDS011;32509;47.750;-3.396;2024-02-26T13:06:55;48.60;;;45.05;;
46757;SDS011;32509;47.750;-3.396;2024-02-26T13:09:26;47.80;;;44.60;;
46757;SDS011;32509;47.750;-3.396;2024-02-26T13:11:55;48.55;;;45.40;;
46757;SDS011;32509;47.750;-3.396;2024-02-26T13:14:21;47.40;;;43.78;;
46757;SDS011;32509;47.750;-3.396;2024-02-26T13:16:58;50.85;;;47.83;;
46757;SDS011;32509;47.750;-3.396;2024-02-26T13:19:25;47.75;;;44.45;;
46757;SDS011;32509;47.750;-3.396;2024-02-26T13:21:51;48.45;;;44.90;;
46757;SDS011;32509;47.750;-3.396;2024-02-26T13:24:17;55.03;;;51.40;;
46757;SDS011;32509;47.750;-3.396;2024-02-26T13:26:45;47.33;;;44.05;;
46757;SDS011;32509;47.750;-3.396;2024-02-26T13:29:20;48.03;;;44.80;;
46757;SDS011;32509;47.750;-3.396;2024-02-26T13:31:46;51.35;;;47.88;;
46757;SDS011;32509;47.750;-3.396;2024-02-26T13:34:22;47.08;;;43.88;;
46757;SDS011;32509;47.750;-3.396;2024-02-26T13:36:56;44.50;;;41.25;;
46757;SDS011;32509;47.750;-3.396;2024-02-26T13:39:23;49.35;;;45.97;;
46757;SDS011;32509;47.750;-3.396;2024-02-26T13:41:50;50.22;;;46.92;;
46757;SDS011;32509;47.750;-3.396;2024-02-26T13:44:17;52.15;;;48.35;;
46757;SDS011;32509;47.750;-3.396;2024-02-26T13:46:43;55.63;;;52.42;;
46757;SDS011;32509;47.750;-3.396;2024-02-26T13:49:09;53.13;;;49.53;;
46757;SDS011;32509;47.750;-3.396;2024-02-26T13:51:36;49.67;;;46.22;;
46757;SDS011;32509;47.750;-3.396;2024-02-26T13:54:02;51.85;;;48.35;;
46757;SDS011;32509;47.750;-3.396;2024-02-26T13:56:29;49.25;;;45.97;;
46757;SDS011;32509;47.750;-3.396;2024-02-26T13:58:54;47.55;;;44.28;;
46757;SDS011;32509;47.750;-3.396;2024-02-26T14:01:20;46.63;;;43.75;;
46757;SDS011;32509;47.750;-3.396;2024-02-26T14:03:46;48.28;;;45.15;;
46757;SDS011;32509;47.750;-3.396;2024-02-26T14:06:12;45.70;;;42.38;;
46757;SDS011;32509;47.750;-3.396;2024-02-26T14:08:38;46.30;;;42.90;;
46757;SDS011;32509;47.750;-3.396;2024-02-26T14:11:04;51.60;;;47.75;;
46757;SDS011;32509;47.750;-3.396;2024-02-26T14:13:30;47.85;;;44.70;;
46757;SDS011;32509;47.750;-3.396;2024-02-26T14:15:56;39.30;;;36.42;;
46757;SDS011;32509;47.750;-3.396;2024-02-26T14:18:22;51.30;;;47.90;;
46757;SDS011;32509;47.750;-3.396;2024-02-26T14:20:49;43.50;;;40.70;;
46757;SDS011;32509;47.750;-3.396;2024-02-26T14:23:16;40.42;;;37.67;;
46757;SDS011;32509;47.750;-3.396;2024-02-26T14:25:42;43.05;;;39.63;;
46757;SDS011;32509;47.750;-3.396;2024-02-26T14:28:08;46.88;;;43.10;;
46757;SDS011;32509;47.750;-3.396;2024-02-26T14:30:34;44.40;;;41.47;;
46757;SDS011;32509;47.750;-3.396;2024-02-26T14:33:00;50.45;;;46.92;;
46757;SDS011;32509;47.750;-3.396;2024-02-26T14:35:27;42.75;;;40.28;;
46757;SDS011;32509;47.750;-3.396;2024-02-26T14:37:53;46.15;;;42.95;;
46757;SDS011;32509;47.750;-3.396;2024-02-26T14:40:20;43.40;;;40.55;;
46757;SDS011;32509;47.750;-3.396;2024-02-26T14:42:46;48.30;;;45.22;;
46757;SDS011;32509;47.750;-3.396;2024-02-26T14:45:12;48.15;;;44.88;;
46757;SDS011;32509;47.750;-3.396;2024-02-26T14:47:38;52.85;;;49.53;;
46757;SDS011;32509;47.750;-3.396;2024-02-26T14:50:04;41.25;;;38.72;;
46757;SDS011;32509;47.750;-3.396;2024-02-26T14:52:30;46.45;;;43.45;;
46757;SDS011;32509;47.750;-3.396;2024-02-26T14:54:56;45.97;;;43.08;;
46757;SDS011;32509;47.750;-3.396;2024-02-26T14:57:26;52.03;;;48.65;;
46757;SDS011;32509;47.750;-3.396;2024-02-26T14:59:52;50.95;;;47.17;;
46757;SDS011;32509;47.750;-3.396;2024-02-26T15:02:18;49.85;;;45.92;;
46757;SDS011;32509;47.750;-3.396;2024-02-26T15:04:44;40.65;;;37.97;;
46757;SDS011;32509;47.750;-3.396;2024-02-26T15:07:10;50.75;;;47.08;;
46757;SDS011;32509;47.750;-3.396;2024-02-26T15:09:36;46.05;;;43.25;;
46757;SDS011;32509;47.750;-3.396;2024-02-26T15:12:03;50.17;;;46.85;;
46757;SDS011;32509;47.750;-3.396;2024-02-26T15:14:32;40.60;;;37.72;;
46757;SDS011;32509;47.750;-3.396;2024-02-26T15:16:58;44.72;;;41.67;;
46757;SDS011;32509;47.750;-3.396;2024-02-26T15:19:24;46.20;;;43.50;;
46757;SDS011;32509;47.750;-3.396;2024-02-26T15:21:50;42.63;;;39.90;;
46757;SDS011;32509;47.750;-3.396;2024-02-26T15:24:16;41.47;;;39.17;;
46757;SDS011;32509;47.750;-3.396;2024-02-26T15:26:43;42.33;;;38.92;;
46757;SDS011;32509;47.750;-3.396;2024-02-26T15:29:09;47.83;;;44.03;;
46757;SDS011;32509;47.750;-3.396;2024-02-26T15:31:36;39.25;;;36.72;;
46757;SDS011;32509;47.750;-3.396;2024-02-26T15:34:02;44.15;;;41.33;;
46757;SDS011;32509;47.750;-3.396;2024-02-26T15:36:29;40.50;;;37.88;;
46757;SDS011;32509;47.750;-3.396;2024-02-26T15:38:55;40.95;;;38.20;;
46757;SDS011;32509;47.750;-3.396;2024-02-26T15:41:22;41.00;;;38.15;;
46757;SDS011;32509;47.750;-3.396;2024-02-26T15:43:48;40.58;;;37.83;;
46757;SDS011;32509;47.750;-3.396;2024-02-26T15:46:15;38.72;;;35.88;;
46757;SDS011;32509;47.750;-3.396;2024-02-26T15:48:42;35.95;;;33.58;;
46757;SDS011;32509;47.750;-3.396;2024-02-26T15:51:08;41.97;;;38.97;;
46757;SDS011;32509;47.750;-3.396;2024-02-26T15:53:44;40.38;;;38.00;;
46757;SDS011;32509;47.750;-3.396;2024-02-26T15:56:10;45.63;;;42.55;;